ENTC Airport Information

Runway Information
Runway 01 Length 7848 ft width 148 ft
Elevation 25 ft Threshold 0 ft Heading 13
Runway 19 Length 7848 ft Width 148 ft
Elevation 13 ft Threshold 1286 ft Heading 193
Airport Frequencies
Type APP Name APP Frequency 123.75 MHZ
Type ATIS Name ATIS Frequency 126.125 MHZ
Type TWR Name TWR Frequency 118.3 MHZ
Airport Navaids
Type NDB Name Kobbe Frequency 283 KHZ
Type NDB Name Kvalsund Frequency 362 KHZ
Type NDB Name Lanes Frequency 268 KHZ
Type VOR-DME Name Tromso Frequency 113800 KHZ
Airport Weather Information & NOTAM
ADDS - METARS form results

(1726 UTC 13 July 2020)
Data provider http://aviationweather.gov/metar/data/
 
METAR text: ENTC 131720Z 02015KT 9999 FEW032 BKN078 13/09 Q1017 NOSIG RMK WIND 2600FT 04004KT
Conditions at: ENTC (TROMSO/LANGNES , NO) observed 1720 UTC 13 July 2020
Temperature: 13.0°C (55°F)
Dewpoint: 9.0°C (48°F) [RH = 77%]
Pressure (altimeter): 30.03 inches Hg (1017.0 mb)
Winds: from the NNE (20 degrees) at 17 MPH (15 knots; 7.7 m/s)
Visibility: 6 or more miles (10+ km)
Ceiling: 7800 feet AGL
Clouds: few clouds at 3200 feet AGL
broken clouds at 7800 feet AGL
Weather: no significant weather observed at this time

METAR text: ENTC 131650Z 01009KT 9999 FEW032 BKN061 14/09 Q1017 NOSIG RMK WIND 2600FT VRB03KT
Conditions at: ENTC (TROMSO/LANGNES , NO) observed 1650 UTC 13 July 2020
Temperature: 14.0°C (57°F)
Dewpoint: 9.0°C (48°F) [RH = 72%]
Pressure (altimeter): 30.03 inches Hg (1017.0 mb)
Winds: from the N (10 degrees) at 10 MPH (9 knots; 4.6 m/s)
Visibility: 6 or more miles (10+ km)
Ceiling: 6100 feet AGL
Clouds: few clouds at 3200 feet AGL
broken clouds at 6100 feet AGL
Weather: no significant weather observed at this time

Forecast for: ENTC (TROMSO/LANGNES , NO)
Text: TAF ENTC 1312/1412 02008KT 9999 FEW015 BKN030
Forecast period: 1200 UTC 13 July 2020 to 1200 UTC 14 July 2020
Forecast type: FROM: standard forecast or significant change
Winds: from the NNE (20 degrees) at 9 MPH (8 knots; 4.1 m/s)
Visibility: 6 or more miles 10+ km)
Ceiling: 3000 feet AGL
Clouds: few clouds at 1500 feet AGL
broken clouds at 3000 feet AGL
Weather: no significant weather forecast for this period
Text: PROB40
Forecast period: 1200 to 1800 UTC 13 July 2020
Forecast type: TEMPORARY: The following changes expected for less than half the time period
Visibility: missing
Ceiling: at least 12,000 feet AGL
Clouds: few clouds at 3000 feet AGL
Weather: no significant weather forecast for this period